DAL4643 KLAX-KSAN
Flight info
| Callsign | DAL4643 |
|---|---|
| Flight time | 0h 33m |
| Altitude | 13000 |
| Route | LAXX1 MZB |
| Aircraft | A21N/M-VGDW/C |
Departure
| Time | 2026-05-04 00:10 |
|---|---|
| Airport | Los Angeles International Airport (KLAX) |
Arrival
| Time | 2026-05-04 00:44 |
|---|---|
| Airport | San Diego International Airport (KSAN) |
| Time | Latitude | Longitude | Altitude | Speed | Heading |
|---|---|---|---|---|---|
| 2026-05-03 23:55 | 33.94674 | -118.40329 | 129 ft | 0 kts | 263° |
| 2026-05-04 00:02 | 33.94674 | -118.40327 | 129 ft | 2 kts | 263° |
| 2026-05-04 00:03 | 33.94676 | -118.40308 | 128 ft | 2 kts | 263° |
| 2026-05-04 00:03 | 33.94678 | -118.40289 | 122 ft | 2 kts | 263° |
| 2026-05-04 00:03 | 33.94676 | -118.40270 | 123 ft | 2 kts | 311° |
| 2026-05-04 00:03 | 33.94666 | -118.40262 | 122 ft | 0 kts | 354° |
| 2026-05-04 00:07 | 33.94668 | -118.40262 | 122 ft | 2 kts | 354° |
| 2026-05-04 00:07 | 33.94695 | -118.40256 | 124 ft | 7 kts | 10° |
| 2026-05-04 00:07 | 33.94771 | -118.40263 | 126 ft | 14 kts | 353° |
| 2026-05-04 00:07 | 33.94871 | -118.40282 | 128 ft | 12 kts | 19° |
| 2026-05-04 00:08 | 33.94904 | -118.40220 | 125 ft | 10 kts | 79° |
| 2026-05-04 00:08 | 33.94915 | -118.40110 | 125 ft | 16 kts | 83° |
| 2026-05-04 00:08 | 33.94935 | -118.39954 | 125 ft | 20 kts | 69° |
| 2026-05-04 00:08 | 33.94948 | -118.39929 | 125 ft | 0 kts | 41° |
| 2026-05-04 00:09 | 33.94964 | -118.39919 | 123 ft | 6 kts | 24° |
| 2026-05-04 00:09 | 33.95023 | -118.39925 | 125 ft | 11 kts | 323° |
| 2026-05-04 00:09 | 33.95037 | -118.40008 | 125 ft | 12 kts | 262° |
| 2026-05-04 00:10 | 33.94991 | -118.40449 | 128 ft | 103 kts | 263° |
| 2026-05-04 00:10 | 33.94861 | -118.41690 | 149 ft | 186 kts | 262° |
| 2026-05-04 00:10 | 33.94695 | -118.43377 | 714 ft | 213 kts | 264° |
| 2026-05-04 00:10 | 33.94536 | -118.45182 | 1322 ft | 226 kts | 263° |
| 2026-05-04 00:11 | 33.94329 | -118.47068 | 1974 ft | 216 kts | 261° |
| 2026-05-04 00:11 | 33.94121 | -118.48720 | 2446 ft | 187 kts | 260° |
| 2026-05-04 00:11 | 33.93929 | -118.50189 | 2762 ft | 169 kts | 260° |
| 2026-05-04 00:11 | 33.93778 | -118.51549 | 2997 ft | 159 kts | 262° |
| 2026-05-04 00:12 | 33.93650 | -118.52834 | 3186 ft | 149 kts | 261° |
| 2026-05-04 00:12 | 33.93521 | -118.54060 | 3467 ft | 152 kts | 261° |
| 2026-05-04 00:12 | 33.93382 | -118.55399 | 3769 ft | 170 kts | 261° |
| 2026-05-04 00:12 | 33.93216 | -118.56877 | 4050 ft | 186 kts | 257° |
| 2026-05-04 00:13 | 33.92570 | -118.58280 | 4326 ft | 203 kts | 222° |
| 2026-05-04 00:13 | 33.91236 | -118.59041 | 4593 ft | 228 kts | 189° |
| 2026-05-04 00:13 | 33.89585 | -118.58859 | 4913 ft | 250 kts | 166° |
| 2026-05-04 00:13 | 33.87890 | -118.58172 | 5425 ft | 262 kts | 161° |
| 2026-05-04 00:14 | 33.86162 | -118.57373 | 6017 ft | 269 kts | 161° |
| 2026-05-04 00:14 | 33.84428 | -118.56555 | 6585 ft | 273 kts | 161° |
| 2026-05-04 00:14 | 33.82645 | -118.55717 | 7189 ft | 272 kts | 161° |
| 2026-05-04 00:14 | 33.80929 | -118.54904 | 7450 ft | 262 kts | 162° |
| 2026-05-04 00:15 | 33.79240 | -118.54107 | 7609 ft | 260 kts | 162° |
| 2026-05-04 00:15 | 33.77570 | -118.53288 | 7695 ft | 259 kts | 161° |
| 2026-05-04 00:15 | 33.75896 | -118.52482 | 7705 ft | 258 kts | 161° |
| 2026-05-04 00:15 | 33.74262 | -118.51682 | 7925 ft | 249 kts | 160° |
| 2026-05-04 00:16 | 33.72704 | -118.50778 | 7949 ft | 251 kts | 151° |
| 2026-05-04 00:16 | 33.71403 | -118.49354 | 7969 ft | 256 kts | 132° |
| 2026-05-04 00:16 | 33.70297 | -118.47673 | 8088 ft | 256 kts | 131° |
| 2026-05-04 00:16 | 33.69188 | -118.45994 | 8212 ft | 256 kts | 131° |
| 2026-05-04 00:17 | 33.68089 | -118.44346 | 8351 ft | 256 kts | 131° |
| 2026-05-04 00:17 | 33.66998 | -118.42664 | 8549 ft | 255 kts | 131° |
| 2026-05-04 00:17 | 33.65913 | -118.40969 | 8590 ft | 256 kts | 131° |
| 2026-05-04 00:17 | 33.64823 | -118.39277 | 8578 ft | 256 kts | 131° |
| 2026-05-04 00:18 | 33.63730 | -118.37585 | 8564 ft | 256 kts | 131° |
| 2026-05-04 00:18 | 33.62633 | -118.35887 | 8563 ft | 256 kts | 131° |
| 2026-05-04 00:18 | 33.61548 | -118.34198 | 8574 ft | 255 kts | 131° |
| 2026-05-04 00:18 | 33.60466 | -118.32512 | 8571 ft | 255 kts | 131° |
| 2026-05-04 00:19 | 33.59380 | -118.30820 | 8572 ft | 255 kts | 131° |
| 2026-05-04 00:19 | 33.58310 | -118.29155 | 8564 ft | 255 kts | 131° |
| 2026-05-04 00:19 | 33.57230 | -118.27472 | 8581 ft | 254 kts | 131° |
| 2026-05-04 00:19 | 33.56161 | -118.25814 | 8793 ft | 249 kts | 132° |
| 2026-05-04 00:20 | 33.55119 | -118.24149 | 9030 ft | 250 kts | 131° |
| 2026-05-04 00:20 | 33.54067 | -118.22479 | 9272 ft | 250 kts | 131° |
| 2026-05-04 00:20 | 33.53008 | -118.20809 | 9591 ft | 253 kts | 131° |
| 2026-05-04 00:20 | 33.51953 | -118.19115 | 9915 ft | 255 kts | 132° |
| 2026-05-04 00:21 | 33.50874 | -118.17416 | 10207 ft | 257 kts | 131° |
| 2026-05-04 00:21 | 33.49800 | -118.15684 | 10522 ft | 260 kts | 131° |
| 2026-05-04 00:21 | 33.48742 | -118.13955 | 10881 ft | 260 kts | 131° |
| 2026-05-04 00:21 | 33.47658 | -118.12214 | 11223 ft | 261 kts | 131° |
| 2026-05-04 00:22 | 33.46586 | -118.10453 | 11574 ft | 262 kts | 131° |
| 2026-05-04 00:22 | 33.45510 | -118.08680 | 11932 ft | 263 kts | 131° |
| 2026-05-04 00:22 | 33.44421 | -118.06920 | 12300 ft | 263 kts | 131° |
| 2026-05-04 00:22 | 33.43341 | -118.05146 | 12656 ft | 264 kts | 131° |
| 2026-05-04 00:23 | 33.42266 | -118.03353 | 12969 ft | 269 kts | 131° |
| 2026-05-04 00:23 | 33.41162 | -118.01510 | 13011 ft | 282 kts | 131° |
| 2026-05-04 00:23 | 33.39980 | -117.99555 | 13012 ft | 296 kts | 131° |
| 2026-05-04 00:23 | 33.38741 | -117.97525 | 13011 ft | 308 kts | 131° |
| 2026-05-04 00:24 | 33.37463 | -117.95445 | 12999 ft | 310 kts | 131° |
| 2026-05-04 00:24 | 33.36187 | -117.93369 | 13002 ft | 309 kts | 131° |
| 2026-05-04 00:24 | 33.34914 | -117.91296 | 12999 ft | 309 kts | 131° |
| 2026-05-04 00:24 | 33.33640 | -117.89221 | 13009 ft | 309 kts | 131° |
| 2026-05-04 00:25 | 33.32366 | -117.87146 | 13006 ft | 309 kts | 131° |
| 2026-05-04 00:25 | 33.31093 | -117.85073 | 13010 ft | 309 kts | 131° |
| 2026-05-04 00:25 | 33.29819 | -117.82999 | 12998 ft | 309 kts | 131° |
| 2026-05-04 00:25 | 33.28575 | -117.80974 | 12998 ft | 309 kts | 131° |
| 2026-05-04 00:26 | 33.27304 | -117.78905 | 13007 ft | 309 kts | 131° |
| 2026-05-04 00:26 | 33.26031 | -117.76834 | 13004 ft | 309 kts | 131° |
| 2026-05-04 00:26 | 33.24760 | -117.74766 | 13005 ft | 309 kts | 131° |
| 2026-05-04 00:26 | 33.23506 | -117.72723 | 12999 ft | 309 kts | 131° |
| 2026-05-04 00:27 | 33.22234 | -117.70651 | 13003 ft | 310 kts | 131° |
| 2026-05-04 00:27 | 33.20957 | -117.68573 | 13003 ft | 310 kts | 131° |
| 2026-05-04 00:27 | 33.19676 | -117.66491 | 13001 ft | 311 kts | 131° |
| 2026-05-04 00:27 | 33.18399 | -117.64416 | 13000 ft | 311 kts | 131° |
| 2026-05-04 00:28 | 33.17120 | -117.62341 | 12999 ft | 311 kts | 131° |
| 2026-05-04 00:28 | 33.15837 | -117.60259 | 12990 ft | 311 kts | 131° |
| 2026-05-04 00:28 | 33.14561 | -117.58184 | 12994 ft | 310 kts | 131° |
| 2026-05-04 00:28 | 33.13287 | -117.56116 | 12996 ft | 310 kts | 131° |
| 2026-05-04 00:29 | 33.12010 | -117.54039 | 12998 ft | 311 kts | 131° |
| 2026-05-04 00:29 | 33.10786 | -117.51905 | 12998 ft | 313 kts | 127° |
| 2026-05-04 00:29 | 33.09713 | -117.49637 | 12995 ft | 315 kts | 122° |
| 2026-05-04 00:29 | 33.08723 | -117.47306 | 12986 ft | 315 kts | 121° |
| 2026-05-04 00:30 | 33.07753 | -117.44956 | 12991 ft | 316 kts | 121° |
| 2026-05-04 00:30 | 33.06791 | -117.42600 | 12999 ft | 316 kts | 121° |
| 2026-05-04 00:30 | 33.06154 | -117.41038 | 12992 ft | 316 kts | 121° |
| 2026-05-04 00:30 | 33.04881 | -117.37867 | 12986 ft | 318 kts | 118° |
| 2026-05-04 00:31 | 33.04274 | -117.36274 | 13003 ft | 316 kts | 123° |
| 2026-05-04 00:31 | 33.03009 | -117.34181 | 13018 ft | 309 kts | 137° |
| 2026-05-04 00:31 | 33.01500 | -117.32373 | 13012 ft | 306 kts | 144° |
| 2026-05-04 00:31 | 32.99273 | -117.30368 | 12967 ft | 299 kts | 152° |
| 2026-05-04 00:32 | 32.98061 | -117.29563 | 12679 ft | 292 kts | 162° |
| 2026-05-04 00:32 | 32.96155 | -117.28811 | 12122 ft | 287 kts | 169° |
| 2026-05-04 00:32 | 32.94242 | -117.28237 | 11603 ft | 286 kts | 171° |
| 2026-05-04 00:32 | 32.92314 | -117.27687 | 11110 ft | 284 kts | 171° |
| 2026-05-04 00:33 | 32.90398 | -117.27150 | 10621 ft | 282 kts | 171° |
| 2026-05-04 00:33 | 32.86801 | -117.25323 | 9617 ft | 288 kts | 142° |
| 2026-05-04 00:33 | 32.85563 | -117.23421 | 9087 ft | 294 kts | 124° |
| 2026-05-04 00:34 | 32.84597 | -117.21286 | 8585 ft | 293 kts | 121° |
| 2026-05-04 00:34 | 32.83764 | -117.19345 | 8165 ft | 291 kts | 121° |
| 2026-05-04 00:34 | 32.82852 | -117.17212 | 7655 ft | 288 kts | 121° |
| 2026-05-04 00:34 | 32.81960 | -117.15095 | 7252 ft | 283 kts | 121° |
| 2026-05-04 00:35 | 32.81090 | -117.13016 | 7029 ft | 279 kts | 121° |
| 2026-05-04 00:35 | 32.80222 | -117.10948 | 7001 ft | 280 kts | 121° |
| 2026-05-04 00:35 | 32.79443 | -117.08856 | 6985 ft | 281 kts | 112° |
| 2026-05-04 00:35 | 32.78949 | -117.06625 | 6637 ft | 278 kts | 107° |
| 2026-05-04 00:36 | 32.78549 | -117.04378 | 6116 ft | 277 kts | 105° |
| 2026-05-04 00:36 | 32.78139 | -117.02139 | 5564 ft | 277 kts | 105° |
| 2026-05-04 00:36 | 32.77720 | -116.99912 | 5132 ft | 275 kts | 106° |
| 2026-05-04 00:36 | 32.77295 | -116.97704 | 4993 ft | 273 kts | 105° |
| 2026-05-04 00:37 | 32.76864 | -116.95502 | 4981 ft | 273 kts | 105° |
| 2026-05-04 00:37 | 32.76371 | -116.93328 | 4966 ft | 270 kts | 113° |
| 2026-05-04 00:37 | 32.75440 | -116.91467 | 4640 ft | 258 kts | 138° |
| 2026-05-04 00:37 | 32.74059 | -116.90198 | 4445 ft | 244 kts | 148° |
| 2026-05-04 00:38 | 32.72644 | -116.89171 | 4263 ft | 233 kts | 152° |
| 2026-05-04 00:38 | 32.71207 | -116.88392 | 4046 ft | 221 kts | 171° |
| 2026-05-04 00:38 | 32.69715 | -116.88343 | 3983 ft | 213 kts | 196° |
| 2026-05-04 00:38 | 32.68451 | -116.89172 | 3997 ft | 209 kts | 229° |
| 2026-05-04 00:39 | 32.67798 | -116.90687 | 4016 ft | 208 kts | 259° |
| 2026-05-04 00:39 | 32.67846 | -116.92367 | 4008 ft | 209 kts | 284° |
| 2026-05-04 00:39 | 32.68204 | -116.94042 | 4032 ft | 204 kts | 281° |
| 2026-05-04 00:39 | 32.68471 | -116.95643 | 3986 ft | 193 kts | 280° |
| 2026-05-04 00:40 | 32.68740 | -116.97191 | 3855 ft | 191 kts | 280° |
| 2026-05-04 00:40 | 32.69005 | -116.98734 | 3743 ft | 191 kts | 279° |
| 2026-05-04 00:40 | 32.69145 | -117.00292 | 3613 ft | 190 kts | 268° |
| 2026-05-04 00:40 | 32.69314 | -117.01833 | 3441 ft | 187 kts | 282° |
| 2026-05-04 00:41 | 32.69643 | -117.03314 | 3195 ft | 185 kts | 283° |
| 2026-05-04 00:41 | 32.69967 | -117.04795 | 2919 ft | 186 kts | 284° |
| 2026-05-04 00:41 | 32.70338 | -117.06275 | 2680 ft | 187 kts | 284° |
| 2026-05-04 00:41 | 32.70708 | -117.07749 | 2365 ft | 186 kts | 284° |
| 2026-05-04 00:42 | 32.71055 | -117.09158 | 2184 ft | 167 kts | 283° |
| 2026-05-04 00:42 | 32.71325 | -117.10410 | 1944 ft | 150 kts | 282° |
| 2026-05-04 00:42 | 32.71578 | -117.11605 | 1641 ft | 149 kts | 285° |
| 2026-05-04 00:42 | 32.71858 | -117.12771 | 1329 ft | 148 kts | 283° |
| 2026-05-04 00:43 | 32.72144 | -117.13950 | 994 ft | 149 kts | 285° |
| 2026-05-04 00:43 | 32.72436 | -117.15139 | 665 ft | 150 kts | 284° |
| 2026-05-04 00:43 | 32.72731 | -117.16333 | 380 ft | 150 kts | 283° |
| 2026-05-04 00:43 | 32.73015 | -117.17535 | 118 ft | 153 kts | 284° |
| 2026-05-04 00:44 | 32.73300 | -117.18715 | 25 ft | 140 kts | 285° |
| 2026-05-04 00:44 | 32.73432 | -117.19484 | 30 ft | 41 kts | 243° |
| 2026-05-04 00:44 | 32.73411 | -117.19619 | 30 ft | 13 kts | 285° |